sensor_id;sensor_type;location;lat;lon;timestamp;P1;durP1;ratioP1;P2;durP2;ratioP2
56373;SDS011;58212;47.034;7.376;2023-04-25T00:00:01;6.65;;;2.08;;
56373;SDS011;58212;47.034;7.376;2023-04-25T00:02:37;4.82;;;1.92;;
56373;SDS011;58212;47.034;7.376;2023-04-25T00:05:06;2.95;;;1.70;;
56373;SDS011;58212;47.034;7.376;2023-04-25T00:07:37;3.45;;;1.88;;
56373;SDS011;58212;47.034;7.376;2023-04-25T00:10:04;4.25;;;1.92;;
56373;SDS011;58212;47.034;7.376;2023-04-25T00:12:32;3.47;;;1.80;;
56373;SDS011;58212;47.034;7.376;2023-04-25T00:14:59;3.55;;;1.75;;
56373;SDS011;58212;47.034;7.376;2023-04-25T00:17:30;4.95;;;1.85;;
56373;SDS011;58212;47.034;7.376;2023-04-25T00:19:57;4.78;;;1.73;;
56373;SDS011;58212;47.034;7.376;2023-04-25T00:22:25;4.25;;;1.90;;
56373;SDS011;58212;47.034;7.376;2023-04-25T00:24:53;2.70;;;1.45;;
56373;SDS011;58212;47.034;7.376;2023-04-25T00:27:24;3.25;;;1.88;;
56373;SDS011;58212;47.034;7.376;2023-04-25T00:29:51;4.20;;;1.98;;
56373;SDS011;58212;47.034;7.376;2023-04-25T00:32:18;5.57;;;2.42;;
56373;SDS011;58212;47.034;7.376;2023-04-25T00:34:45;6.47;;;1.88;;
56373;SDS011;58212;47.034;7.376;2023-04-25T00:37:12;4.97;;;1.83;;
56373;SDS011;58212;47.034;7.376;2023-04-25T00:39:40;5.68;;;2.08;;
56373;SDS011;58212;47.034;7.376;2023-04-25T00:42:11;4.65;;;2.10;;
56373;SDS011;58212;47.034;7.376;2023-04-25T00:44:38;3.60;;;1.90;;
56373;SDS011;58212;47.034;7.376;2023-04-25T00:47:10;6.28;;;2.05;;
56373;SDS011;58212;47.034;7.376;2023-04-25T00:49:41;4.20;;;2.03;;
56373;SDS011;58212;47.034;7.376;2023-04-25T00:52:08;4.20;;;1.88;;
56373;SDS011;58212;47.034;7.376;2023-04-25T00:54:37;4.55;;;1.80;;
56373;SDS011;58212;47.034;7.376;2023-04-25T00:57:09;4.80;;;1.60;;
56373;SDS011;58212;47.034;7.376;2023-04-25T00:59:37;6.50;;;1.77;;
56373;SDS011;58212;47.034;7.376;2023-04-25T01:02:29;6.43;;;1.80;;
56373;SDS011;58212;47.034;7.376;2023-04-25T01:04:58;3.35;;;1.85;;
56373;SDS011;58212;47.034;7.376;2023-04-25T01:07:25;3.45;;;1.88;;
56373;SDS011;58212;47.034;7.376;2023-04-25T01:09:52;4.53;;;1.88;;
56373;SDS011;58212;47.034;7.376;2023-04-25T01:12:20;2.22;;;1.67;;
56373;SDS011;58212;47.034;7.376;2023-04-25T01:14:49;2.88;;;1.63;;
56373;SDS011;58212;47.034;7.376;2023-04-25T01:17:17;6.82;;;2.25;;
56373;SDS011;58212;47.034;7.376;2023-04-25T01:19:44;4.97;;;2.15;;
56373;SDS011;58212;47.034;7.376;2023-04-25T01:22:14;3.25;;;1.80;;
56373;SDS011;58212;47.034;7.376;2023-04-25T01:24:42;4.32;;;1.80;;
56373;SDS011;58212;47.034;7.376;2023-04-25T01:27:10;3.90;;;1.90;;
56373;SDS011;58212;47.034;7.376;2023-04-25T01:30:03;7.63;;;2.10;;
56373;SDS011;58212;47.034;7.376;2023-04-25T01:32:36;5.53;;;1.88;;
56373;SDS011;58212;47.034;7.376;2023-04-25T01:35:04;3.65;;;2.17;;
56373;SDS011;58212;47.034;7.376;2023-04-25T01:37:36;4.70;;;2.20;;
56373;SDS011;58212;47.034;7.376;2023-04-25T01:40:03;4.55;;;1.73;;
56373;SDS011;58212;47.034;7.376;2023-04-25T01:42:56;3.03;;;1.77;;
56373;SDS011;58212;47.034;7.376;2023-04-25T01:45:49;3.28;;;1.88;;
56373;SDS011;58212;47.034;7.376;2023-04-25T01:48:41;4.10;;;1.73;;
56373;SDS011;58212;47.034;7.376;2023-04-25T01:51:34;6.88;;;2.13;;
56373;SDS011;58212;47.034;7.376;2023-04-25T01:54:03;4.35;;;2.17;;
56373;SDS011;58212;47.034;7.376;2023-04-25T01:56:31;3.28;;;1.98;;
56373;SDS011;58212;47.034;7.376;2023-04-25T01:58:59;4.07;;;2.22;;
56373;SDS011;58212;47.034;7.376;2023-04-25T02:01:51;7.72;;;2.30;;
56373;SDS011;58212;47.034;7.376;2023-04-25T02:04:27;5.28;;;1.85;;
56373;SDS011;58212;47.034;7.376;2023-04-25T02:06:55;4.10;;;2.20;;
56373;SDS011;58212;47.034;7.376;2023-04-25T02:09:32;5.05;;;2.50;;
56373;SDS011;58212;47.034;7.376;2023-04-25T02:12:03;5.88;;;2.10;;
56373;SDS011;58212;47.034;7.376;2023-04-25T02:14:48;5.45;;;2.13;;
56373;SDS011;58212;47.034;7.376;2023-04-25T02:17:24;4.30;;;1.92;;
56373;SDS011;58212;47.034;7.376;2023-04-25T02:19:52;5.22;;;2.67;;
56373;SDS011;58212;47.034;7.376;2023-04-25T02:22:19;3.88;;;1.77;;
56373;SDS011;58212;47.034;7.376;2023-04-25T02:24:48;5.78;;;2.03;;
56373;SDS011;58212;47.034;7.376;2023-04-25T02:27:15;3.75;;;2.17;;
56373;SDS011;58212;47.034;7.376;2023-04-25T02:29:42;2.75;;;1.88;;
56373;SDS011;58212;47.034;7.376;2023-04-25T02:32:10;5.32;;;2.20;;
56373;SDS011;58212;47.034;7.376;2023-04-25T02:34:37;4.85;;;2.03;;
56373;SDS011;58212;47.034;7.376;2023-04-25T02:37:04;6.03;;;2.47;;
56373;SDS011;58212;47.034;7.376;2023-04-25T02:39:32;5.60;;;2.33;;
56373;SDS011;58212;47.034;7.376;2023-04-25T02:42:01;3.42;;;1.98;;
56373;SDS011;58212;47.034;7.376;2023-04-25T02:44:29;3.75;;;1.80;;
56373;SDS011;58212;47.034;7.376;2023-04-25T02:46:56;5.38;;;2.20;;
56373;SDS011;58212;47.034;7.376;2023-04-25T02:49:23;4.47;;;2.03;;
56373;SDS011;58212;47.034;7.376;2023-04-25T02:51:51;5.60;;;2.15;;
56373;SDS011;58212;47.034;7.376;2023-04-25T02:54:18;3.97;;;1.77;;
56373;SDS011;58212;47.034;7.376;2023-04-25T02:56:46;5.50;;;2.10;;
56373;SDS011;58212;47.034;7.376;2023-04-25T02:59:20;5.18;;;1.98;;
56373;SDS011;58212;47.034;7.376;2023-04-25T03:01:47;5.72;;;2.03;;
56373;SDS011;58212;47.034;7.376;2023-04-25T03:04:14;4.18;;;1.80;;
56373;SDS011;58212;47.034;7.376;2023-04-25T03:06:41;4.50;;;1.92;;
56373;SDS011;58212;47.034;7.376;2023-04-25T03:09:08;4.20;;;1.90;;
56373;SDS011;58212;47.034;7.376;2023-04-25T03:11:36;4.05;;;2.10;;
56373;SDS011;58212;47.034;7.376;2023-04-25T03:14:05;4.70;;;2.33;;
56373;SDS011;58212;47.034;7.376;2023-04-25T03:16:34;3.55;;;1.80;;
56373;SDS011;58212;47.034;7.376;2023-04-25T03:19:01;2.53;;;1.75;;
56373;SDS011;58212;47.034;7.376;2023-04-25T03:21:28;4.63;;;1.70;;
56373;SDS011;58212;47.034;7.376;2023-04-25T03:23:57;4.93;;;1.63;;
56373;SDS011;58212;47.034;7.376;2023-04-25T03:26:24;5.13;;;1.92;;
56373;SDS011;58212;47.034;7.376;2023-04-25T03:28:51;4.43;;;1.60;;
56373;SDS011;58212;47.034;7.376;2023-04-25T03:31:19;3.80;;;1.67;;
56373;SDS011;58212;47.034;7.376;2023-04-25T03:33:48;2.75;;;1.58;;
56373;SDS011;58212;47.034;7.376;2023-04-25T03:36:17;3.90;;;1.58;;
56373;SDS011;58212;47.034;7.376;2023-04-25T03:38:44;2.92;;;1.60;;
56373;SDS011;58212;47.034;7.376;2023-04-25T03:41:15;2.63;;;1.70;;
56373;SDS011;58212;47.034;7.376;2023-04-25T03:43:45;4.05;;;1.63;;
56373;SDS011;58212;47.034;7.376;2023-04-25T03:46:14;2.10;;;1.33;;
56373;SDS011;58212;47.034;7.376;2023-04-25T03:48:42;5.57;;;1.77;;
56373;SDS011;58212;47.034;7.376;2023-04-25T03:51:14;2.38;;;1.50;;
56373;SDS011;58212;47.034;7.376;2023-04-25T03:53:44;3.42;;;1.80;;
56373;SDS011;58212;47.034;7.376;2023-04-25T03:56:13;3.40;;;1.95;;
56373;SDS011;58212;47.034;7.376;2023-04-25T03:58:43;3.47;;;1.58;;
56373;SDS011;58212;47.034;7.376;2023-04-25T04:01:10;2.33;;;1.48;;
56373;SDS011;58212;47.034;7.376;2023-04-25T04:03:38;4.20;;;2.05;;
56373;SDS011;58212;47.034;7.376;2023-04-25T04:06:06;3.83;;;1.50;;
56373;SDS011;58212;47.034;7.376;2023-04-25T04:08:39;2.95;;;1.30;;
56373;SDS011;58212;47.034;7.376;2023-04-25T04:11:08;4.22;;;1.60;;
56373;SDS011;58212;47.034;7.376;2023-04-25T04:13:36;2.95;;;1.88;;
56373;SDS011;58212;47.034;7.376;2023-04-25T04:16:04;2.85;;;1.65;;
56373;SDS011;58212;47.034;7.376;2023-04-25T04:18:35;2.83;;;1.48;;
56373;SDS011;58212;47.034;7.376;2023-04-25T04:21:02;3.03;;;1.92;;
56373;SDS011;58212;47.034;7.376;2023-04-25T04:23:33;3.42;;;1.60;;
56373;SDS011;58212;47.034;7.376;2023-04-25T04:26:04;3.75;;;1.73;;
56373;SDS011;58212;47.034;7.376;2023-04-25T04:28:50;4.72;;;1.70;;
56373;SDS011;58212;47.034;7.376;2023-04-25T04:31:27;4.93;;;1.90;;
56373;SDS011;58212;47.034;7.376;2023-04-25T04:33:55;3.30;;;1.60;;
56373;SDS011;58212;47.034;7.376;2023-04-25T04:36:22;4.70;;;1.92;;
56373;SDS011;58212;47.034;7.376;2023-04-25T04:38:51;3.25;;;1.48;;
56373;SDS011;58212;47.034;7.376;2023-04-25T04:41:34;3.88;;;1.48;;
56373;SDS011;58212;47.034;7.376;2023-04-25T04:44:11;4.40;;;1.60;;
56373;SDS011;58212;47.034;7.376;2023-04-25T04:46:58;4.00;;;1.42;;
56373;SDS011;58212;47.034;7.376;2023-04-25T04:49:51;1.92;;;1.33;;
56373;SDS011;58212;47.034;7.376;2023-04-25T04:52:29;2.05;;;1.15;;
56373;SDS011;58212;47.034;7.376;2023-04-25T04:55:04;2.25;;;1.23;;
56373;SDS011;58212;47.034;7.376;2023-04-25T04:57:54;3.50;;;1.35;;
56373;SDS011;58212;47.034;7.376;2023-04-25T05:00:42;1.83;;;1.27;;
56373;SDS011;58212;47.034;7.376;2023-04-25T05:03:30;3.70;;;1.33;;
56373;SDS011;58212;47.034;7.376;2023-04-25T05:06:20;2.53;;;1.50;;
56373;SDS011;58212;47.034;7.376;2023-04-25T05:09:05;3.13;;;1.20;;
56373;SDS011;58212;47.034;7.376;2023-04-25T05:11:45;4.60;;;1.80;;
56373;SDS011;58212;47.034;7.376;2023-04-25T05:14:34;4.95;;;1.63;;
56373;SDS011;58212;47.034;7.376;2023-04-25T05:17:24;2.97;;;1.73;;
56373;SDS011;58212;47.034;7.376;2023-04-25T05:20:20;3.30;;;1.73;;
56373;SDS011;58212;47.034;7.376;2023-04-25T05:23:12;4.18;;;1.92;;
56373;SDS011;58212;47.034;7.376;2023-04-25T05:26:14;3.38;;;1.95;;
56373;SDS011;58212;47.034;7.376;2023-04-25T05:28:52;3.83;;;1.90;;
56373;SDS011;58212;47.034;7.376;2023-04-25T05:31:35;3.35;;;1.80;;
56373;SDS011;58212;47.034;7.376;2023-04-25T05:34:15;2.75;;;1.90;;
56373;SDS011;58212;47.034;7.376;2023-04-25T05:36:54;3.67;;;1.80;;
56373;SDS011;58212;47.034;7.376;2023-04-25T05:39:21;5.32;;;2.13;;
56373;SDS011;58212;47.034;7.376;2023-04-25T05:42:11;6.13;;;2.22;;
56373;SDS011;58212;47.034;7.376;2023-04-25T05:44:42;3.70;;;2.13;;
56373;SDS011;58212;47.034;7.376;2023-04-25T05:47:36;4.35;;;2.45;;
56373;SDS011;58212;47.034;7.376;2023-04-25T05:50:24;3.33;;;1.88;;
56373;SDS011;58212;47.034;7.376;2023-04-25T05:52:54;2.95;;;2.08;;
56373;SDS011;58212;47.034;7.376;2023-04-25T05:55:41;4.55;;;2.08;;
56373;SDS011;58212;47.034;7.376;2023-04-25T05:58:20;3.38;;;2.30;;
56373;SDS011;58212;47.034;7.376;2023-04-25T06:00:47;4.05;;;2.20;;
56373;SDS011;58212;47.034;7.376;2023-04-25T06:03:17;4.75;;;2.10;;
56373;SDS011;58212;47.034;7.376;2023-04-25T06:05:44;2.10;;;1.90;;
56373;SDS011;58212;47.034;7.376;2023-04-25T06:08:11;4.65;;;2.08;;
56373;SDS011;58212;47.034;7.376;2023-04-25T06:10:38;7.07;;;2.38;;
56373;SDS011;58212;47.034;7.376;2023-04-25T06:13:05;5.63;;;2.90;;
56373;SDS011;58212;47.034;7.376;2023-04-25T06:15:33;5.20;;;3.10;;
56373;SDS011;58212;47.034;7.376;2023-04-25T06:18:01;4.72;;;2.85;;
56373;SDS011;58212;47.034;7.376;2023-04-25T06:20:29;3.85;;;2.55;;
56373;SDS011;58212;47.034;7.376;2023-04-25T06:22:58;5.10;;;2.40;;
56373;SDS011;58212;47.034;7.376;2023-04-25T06:26:01;6.22;;;2.40;;
56373;SDS011;58212;47.034;7.376;2023-04-25T06:28:30;4.55;;;2.50;;
56373;SDS011;58212;47.034;7.376;2023-04-25T06:30:57;4.05;;;2.60;;
56373;SDS011;58212;47.034;7.376;2023-04-25T06:33:24;2.63;;;2.30;;
56373;SDS011;58212;47.034;7.376;2023-04-25T06:35:54;2.67;;;2.05;;
56373;SDS011;58212;47.034;7.376;2023-04-25T06:38:25;4.85;;;2.38;;
56373;SDS011;58212;47.034;7.376;2023-04-25T06:40:54;5.18;;;2.38;;
56373;SDS011;58212;47.034;7.376;2023-04-25T06:43:21;3.22;;;2.08;;
56373;SDS011;58212;47.034;7.376;2023-04-25T06:46:00;2.97;;;1.85;;
56373;SDS011;58212;47.034;7.376;2023-04-25T06:48:30;3.63;;;2.17;;
56373;SDS011;58212;47.034;7.376;2023-04-25T06:50:59;3.25;;;2.10;;
56373;SDS011;58212;47.034;7.376;2023-04-25T06:53:27;2.17;;;1.75;;
56373;SDS011;58212;47.034;7.376;2023-04-25T06:56:00;3.30;;;2.05;;
56373;SDS011;58212;47.034;7.376;2023-04-25T06:58:38;2.38;;;1.45;;
56373;SDS011;58212;47.034;7.376;2023-04-25T07:01:26;3.97;;;1.80;;
56373;SDS011;58212;47.034;7.376;2023-04-25T07:03:53;4.05;;;2.00;;
56373;SDS011;58212;47.034;7.376;2023-04-25T07:06:24;3.85;;;1.80;;
56373;SDS011;58212;47.034;7.376;2023-04-25T07:08:54;2.35;;;1.90;;
56373;SDS011;58212;47.034;7.376;2023-04-25T07:11:22;1.80;;;1.70;;
56373;SDS011;58212;47.034;7.376;2023-04-25T07:13:50;3.97;;;1.92;;
56373;SDS011;58212;47.034;7.376;2023-04-25T07:16:17;2.47;;;1.58;;
56373;SDS011;58212;47.034;7.376;2023-04-25T07:18:45;2.10;;;1.80;;
56373;SDS011;58212;47.034;7.376;2023-04-25T07:21:12;2.13;;;1.50;;
56373;SDS011;58212;47.034;7.376;2023-04-25T07:23:43;1.80;;;1.30;;
56373;SDS011;58212;47.034;7.376;2023-04-25T07:26:14;3.05;;;1.65;;
56373;SDS011;58212;47.034;7.376;2023-04-25T07:29:01;3.58;;;1.95;;
56373;SDS011;58212;47.034;7.376;2023-04-25T07:31:29;2.50;;;1.65;;
56373;SDS011;58212;47.034;7.376;2023-04-25T07:33:57;2.67;;;1.75;;
56373;SDS011;58212;47.034;7.376;2023-04-25T07:36:24;2.50;;;1.70;;
56373;SDS011;58212;47.034;7.376;2023-04-25T07:38:53;3.00;;;1.52;;
56373;SDS011;58212;47.034;7.376;2023-04-25T07:41:20;2.78;;;1.70;;
56373;SDS011;58212;47.034;7.376;2023-04-25T07:43:47;2.30;;;1.50;;
56373;SDS011;58212;47.034;7.376;2023-04-25T07:46:14;1.70;;;1.60;;
56373;SDS011;58212;47.034;7.376;2023-04-25T07:48:42;2.92;;;1.70;;
56373;SDS011;58212;47.034;7.376;2023-04-25T07:51:09;1.60;;;1.30;;
56373;SDS011;58212;47.034;7.376;2023-04-25T07:53:37;1.50;;;1.40;;
56373;SDS011;58212;47.034;7.376;2023-04-25T07:56:11;2.70;;;1.67;;
56373;SDS011;58212;47.034;7.376;2023-04-25T07:58:41;1.48;;;1.35;;
56373;SDS011;58212;47.034;7.376;2023-04-25T08:01:11;2.85;;;1.20;;
56373;SDS011;58212;47.034;7.376;2023-04-25T08:03:50;1.73;;;1.63;;
56373;SDS011;58212;47.034;7.376;2023-04-25T08:06:25;2.13;;;1.40;;
56373;SDS011;58212;47.034;7.376;2023-04-25T08:09:02;2.60;;;1.90;;
56373;SDS011;58212;47.034;7.376;2023-04-25T08:11:37;2.53;;;1.60;;
56373;SDS011;58212;47.034;7.376;2023-04-25T08:14:08;1.90;;;1.52;;
56373;SDS011;58212;47.034;7.376;2023-04-25T08:16:36;1.55;;;1.38;;
56373;SDS011;58212;47.034;7.376;2023-04-25T08:19:04;2.40;;;1.30;;
56373;SDS011;58212;47.034;7.376;2023-04-25T08:21:34;1.98;;;1.30;;
56373;SDS011;58212;47.034;7.376;2023-04-25T08:24:04;1.30;;;1.20;;
56373;SDS011;58212;47.034;7.376;2023-04-25T08:26:35;2.47;;;1.52;;
56373;SDS011;58212;47.034;7.376;2023-04-25T08:29:06;1.65;;;1.35;;
56373;SDS011;58212;47.034;7.376;2023-04-25T08:31:35;2.47;;;1.35;;
56373;SDS011;58212;47.034;7.376;2023-04-25T08:34:03;2.25;;;1.42;;
56373;SDS011;58212;47.034;7.376;2023-04-25T08:36:34;2.58;;;1.58;;
56373;SDS011;58212;47.034;7.376;2023-04-25T08:39:01;2.47;;;1.40;;
56373;SDS011;58212;47.034;7.376;2023-04-25T08:41:29;1.88;;;1.30;;
56373;SDS011;58212;47.034;7.376;2023-04-25T08:43:58;2.17;;;1.50;;
56373;SDS011;58212;47.034;7.376;2023-04-25T08:46:27;2.05;;;1.38;;
56373;SDS011;58212;47.034;7.376;2023-04-25T08:49:14;2.40;;;1.45;;
56373;SDS011;58212;47.034;7.376;2023-04-25T08:51:44;1.52;;;1.42;;
56373;SDS011;58212;47.034;7.376;2023-04-25T08:54:18;3.05;;;1.60;;
56373;SDS011;58212;47.034;7.376;2023-04-25T08:56:51;1.80;;;1.50;;
56373;SDS011;58212;47.034;7.376;2023-04-25T08:59:20;2.95;;;1.30;;
56373;SDS011;58212;47.034;7.376;2023-04-25T09:01:49;2.17;;;1.60;;
56373;SDS011;58212;47.034;7.376;2023-04-25T09:04:19;2.03;;;1.38;;
56373;SDS011;58212;47.034;7.376;2023-04-25T09:06:47;2.80;;;1.63;;
56373;SDS011;58212;47.034;7.376;2023-04-25T09:09:14;2.55;;;1.80;;
56373;SDS011;58212;47.034;7.376;2023-04-25T09:11:41;2.67;;;1.75;;
56373;SDS011;58212;47.034;7.376;2023-04-25T09:14:10;2.10;;;1.58;;
56373;SDS011;58212;47.034;7.376;2023-04-25T09:17:01;4.28;;;1.42;;
56373;SDS011;58212;47.034;7.376;2023-04-25T09:19:51;0.90;;;0.70;;
56373;SDS011;58212;47.034;7.376;2023-04-25T09:22:30;0.85;;;0.70;;
56373;SDS011;58212;47.034;7.376;2023-04-25T09:24:57;2.78;;;0.80;;
56373;SDS011;58212;47.034;7.376;2023-04-25T09:27:29;0.80;;;0.70;;
56373;SDS011;58212;47.034;7.376;2023-04-25T09:30:18;1.90;;;1.02;;
56373;SDS011;58212;47.034;7.376;2023-04-25T09:33:11;0.98;;;0.73;;
56373;SDS011;58212;47.034;7.376;2023-04-25T09:35:44;0.60;;;0.60;;
56373;SDS011;58212;47.034;7.376;2023-04-25T09:38:20;1.38;;;0.95;;
56373;SDS011;58212;47.034;7.376;2023-04-25T09:40:53;0.70;;;0.70;;
56373;SDS011;58212;47.034;7.376;2023-04-25T09:43:40;0.95;;;0.57;;
56373;SDS011;58212;47.034;7.376;2023-04-25T09:46:11;0.60;;;0.60;;
56373;SDS011;58212;47.034;7.376;2023-04-25T09:48:49;0.63;;;0.60;;
56373;SDS011;58212;47.034;7.376;2023-04-25T09:51:25;0.57;;;0.57;;
56373;SDS011;58212;47.034;7.376;2023-04-25T09:53:54;0.43;;;0.40;;
56373;SDS011;58212;47.034;7.376;2023-04-25T09:56:35;1.55;;;0.70;;
56373;SDS011;58212;47.034;7.376;2023-04-25T09:59:05;1.17;;;0.60;;
56373;SDS011;58212;47.034;7.376;2023-04-25T10:01:35;1.15;;;0.70;;
56373;SDS011;58212;47.034;7.376;2023-04-25T10:04:12;0.40;;;0.40;;
56373;SDS011;58212;47.034;7.376;2023-04-25T10:07:00;0.60;;;0.60;;
56373;SDS011;58212;47.034;7.376;2023-04-25T10:09:28;0.70;;;0.40;;
56373;SDS011;58212;47.034;7.376;2023-04-25T10:11:59;0.60;;;0.50;;
56373;SDS011;58212;47.034;7.376;2023-04-25T10:14:27;0.40;;;0.40;;
56373;SDS011;58212;47.034;7.376;2023-04-25T10:16:55;0.57;;;0.45;;
56373;SDS011;58212;47.034;7.376;2023-04-25T10:19:25;0.55;;;0.50;;
56373;SDS011;58212;47.034;7.376;2023-04-25T10:21:54;0.50;;;0.40;;
56373;SDS011;58212;47.034;7.376;2023-04-25T10:24:28;0.60;;;0.57;;
56373;SDS011;58212;47.034;7.376;2023-04-25T10:26:55;0.90;;;0.40;;
56373;SDS011;58212;47.034;7.376;2023-04-25T10:29:24;0.55;;;0.40;;
56373;SDS011;58212;47.034;7.376;2023-04-25T10:31:51;0.50;;;0.40;;
56373;SDS011;58212;47.034;7.376;2023-04-25T10:34:19;0.35;;;0.30;;
56373;SDS011;58212;47.034;7.376;2023-04-25T10:36:52;0.50;;;0.38;;
56373;SDS011;58212;47.034;7.376;2023-04-25T10:39:22;0.40;;;0.40;;
56373;SDS011;58212;47.034;7.376;2023-04-25T10:41:53;0.47;;;0.32;;
56373;SDS011;58212;47.034;7.376;2023-04-25T10:44:25;0.47;;;0.47;;
56373;SDS011;58212;47.034;7.376;2023-04-25T10:46:54;0.80;;;0.30;;
56373;SDS011;58212;47.034;7.376;2023-04-25T10:49:29;0.25;;;0.20;;
56373;SDS011;58212;47.034;7.376;2023-04-25T10:54:51;0.50;;;0.30;;
56373;SDS011;58212;47.034;7.376;2023-04-25T10:57:26;0.50;;;0.30;;
56373;SDS011;58212;47.034;7.376;2023-04-25T10:59:57;0.30;;;0.28;;
56373;SDS011;58212;47.034;7.376;2023-04-25T11:02:30;0.73;;;0.40;;
56373;SDS011;58212;47.034;7.376;2023-04-25T11:04:57;0.60;;;0.50;;
56373;SDS011;58212;47.034;7.376;2023-04-25T11:07:28;0.60;;;0.45;;
56373;SDS011;58212;47.034;7.376;2023-04-25T11:10:02;0.43;;;0.38;;
56373;SDS011;58212;47.034;7.376;2023-04-25T11:12:30;0.30;;;0.30;;
56373;SDS011;58212;47.034;7.376;2023-04-25T11:14:58;0.30;;;0.20;;
56373;SDS011;58212;47.034;7.376;2023-04-25T11:17:26;0.82;;;0.40;;
56373;SDS011;58212;47.034;7.376;2023-04-25T11:19:56;0.73;;;0.30;;
56373;SDS011;58212;47.034;7.376;2023-04-25T11:22:25;0.40;;;0.40;;
56373;SDS011;58212;47.034;7.376;2023-04-25T11:24:55;0.30;;;0.30;;
56373;SDS011;58212;47.034;7.376;2023-04-25T11:27:21;0.40;;;0.40;;
56373;SDS011;58212;47.034;7.376;2023-04-25T11:29:49;0.98;;;0.50;;
56373;SDS011;58212;47.034;7.376;2023-04-25T11:32:17;0.40;;;0.32;;
56373;SDS011;58212;47.034;7.376;2023-04-25T11:34:44;0.40;;;0.40;;
56373;SDS011;58212;47.034;7.376;2023-04-25T11:37:11;2.78;;;0.63;;
56373;SDS011;58212;47.034;7.376;2023-04-25T11:39:42;1.10;;;0.40;;
56373;SDS011;58212;47.034;7.376;2023-04-25T11:42:12;0.40;;;0.40;;
56373;SDS011;58212;47.034;7.376;2023-04-25T11:44:39;0.68;;;0.50;;
56373;SDS011;58212;47.034;7.376;2023-04-25T11:47:06;0.70;;;0.40;;
56373;SDS011;58212;47.034;7.376;2023-04-25T11:49:34;1.60;;;0.70;;
56373;SDS011;58212;47.034;7.376;2023-04-25T11:52:03;0.30;;;0.30;;
56373;SDS011;58212;47.034;7.376;2023-04-25T11:54:35;0.60;;;0.60;;
56373;SDS011;58212;47.034;7.376;2023-04-25T11:57:03;0.43;;;0.40;;
56373;SDS011;58212;47.034;7.376;2023-04-25T11:59:31;0.82;;;0.55;;
56373;SDS011;58212;47.034;7.376;2023-04-25T12:01:58;0.60;;;0.40;;
56373;SDS011;58212;47.034;7.376;2023-04-25T12:04:30;0.45;;;0.40;;
56373;SDS011;58212;47.034;7.376;2023-04-25T12:06:58;0.30;;;0.30;;
56373;SDS011;58212;47.034;7.376;2023-04-25T12:09:30;1.15;;;0.50;;
56373;SDS011;58212;47.034;7.376;2023-04-25T12:11:58;0.45;;;0.40;;
56373;SDS011;58212;47.034;7.376;2023-04-25T12:14:28;0.40;;;0.40;;
56373;SDS011;58212;47.034;7.376;2023-04-25T12:16:59;0.60;;;0.40;;
56373;SDS011;58212;47.034;7.376;2023-04-25T12:19:31;0.60;;;0.60;;
56373;SDS011;58212;47.034;7.376;2023-04-25T12:21:59;0.88;;;0.50;;
56373;SDS011;58212;47.034;7.376;2023-04-25T12:24:28;1.42;;;0.93;;
56373;SDS011;58212;47.034;7.376;2023-04-25T12:26:58;1.35;;;0.85;;
56373;SDS011;58212;47.034;7.376;2023-04-25T12:29:27;1.05;;;0.98;;
56373;SDS011;58212;47.034;7.376;2023-04-25T12:31:55;1.75;;;1.10;;
56373;SDS011;58212;47.034;7.376;2023-04-25T12:34:24;1.20;;;0.70;;
56373;SDS011;58212;47.034;7.376;2023-04-25T12:36:53;1.23;;;0.80;;
56373;SDS011;58212;47.034;7.376;2023-04-25T12:39:22;1.45;;;1.00;;
56373;SDS011;58212;47.034;7.376;2023-04-25T12:41:50;2.35;;;1.20;;
56373;SDS011;58212;47.034;7.376;2023-04-25T12:44:19;1.42;;;0.93;;
56373;SDS011;58212;47.034;7.376;2023-04-25T12:46:46;1.27;;;0.80;;
56373;SDS011;58212;47.034;7.376;2023-04-25T12:49:14;0.93;;;0.70;;
56373;SDS011;58212;47.034;7.376;2023-04-25T12:51:41;0.73;;;0.70;;
56373;SDS011;58212;47.034;7.376;2023-04-25T12:54:09;2.25;;;0.90;;
56373;SDS011;58212;47.034;7.376;2023-04-25T12:56:37;1.40;;;0.75;;
56373;SDS011;58212;47.034;7.376;2023-04-25T12:59:04;1.33;;;0.90;;
56373;SDS011;58212;47.034;7.376;2023-04-25T13:01:31;1.42;;;0.77;;
56373;SDS011;58212;47.034;7.376;2023-04-25T13:03:58;0.60;;;0.60;;
56373;SDS011;58212;47.034;7.376;2023-04-25T13:06:26;2.17;;;0.90;;
56373;SDS011;58212;47.034;7.376;2023-04-25T13:08:57;2.30;;;1.00;;
56373;SDS011;58212;47.034;7.376;2023-04-25T13:11:24;1.20;;;0.90;;
56373;SDS011;58212;47.034;7.376;2023-04-25T13:13:51;4.13;;;3.72;;
56373;SDS011;58212;47.034;7.376;2023-04-25T13:16:18;2.38;;;1.02;;
56373;SDS011;58212;47.034;7.376;2023-04-25T13:18:45;1.50;;;0.85;;
56373;SDS011;58212;47.034;7.376;2023-04-25T13:21:13;0.80;;;0.70;;
56373;SDS011;58212;47.034;7.376;2023-04-25T13:23:41;1.58;;;0.90;;
56373;SDS011;58212;47.034;7.376;2023-04-25T13:26:11;1.40;;;0.93;;
56373;SDS011;58212;47.034;7.376;2023-04-25T13:28:38;0.82;;;0.80;;
56373;SDS011;58212;47.034;7.376;2023-04-25T13:31:06;0.93;;;0.82;;
56373;SDS011;58212;47.034;7.376;2023-04-25T13:33:33;0.98;;;0.70;;
56373;SDS011;58212;47.034;7.376;2023-04-25T13:36:00;0.73;;;0.70;;
56373;SDS011;58212;47.034;7.376;2023-04-25T13:38:27;1.10;;;0.90;;
56373;SDS011;58212;47.034;7.376;2023-04-25T13:40:56;2.03;;;1.00;;
56373;SDS011;58212;47.034;7.376;2023-04-25T13:43:23;1.88;;;0.93;;
56373;SDS011;58212;47.034;7.376;2023-04-25T13:45:50;1.73;;;1.13;;
56373;SDS011;58212;47.034;7.376;2023-04-25T13:48:17;1.88;;;0.80;;
56373;SDS011;58212;47.034;7.376;2023-04-25T13:50:47;2.72;;;1.05;;
56373;SDS011;58212;47.034;7.376;2023-04-25T13:53:15;3.80;;;1.20;;
56373;SDS011;58212;47.034;7.376;2023-04-25T13:55:42;4.60;;;3.53;;
56373;SDS011;58212;47.034;7.376;2023-04-25T13:58:10;1.35;;;1.10;;
56373;SDS011;58212;47.034;7.376;2023-04-25T14:00:38;1.98;;;1.00;;
56373;SDS011;58212;47.034;7.376;2023-04-25T14:03:07;2.08;;;0.73;;
56373;SDS011;58212;47.034;7.376;2023-04-25T14:05:34;1.80;;;0.90;;
56373;SDS011;58212;47.034;7.376;2023-04-25T14:08:04;1.05;;;0.80;;
56373;SDS011;58212;47.034;7.376;2023-04-25T14:10:32;1.70;;;1.35;;
56373;SDS011;58212;47.034;7.376;2023-04-25T14:13:00;1.35;;;1.20;;
56373;SDS011;58212;47.034;7.376;2023-04-25T14:15:29;1.33;;;1.00;;
56373;SDS011;58212;47.034;7.376;2023-04-25T14:17:57;1.98;;;1.00;;
56373;SDS011;58212;47.034;7.376;2023-04-25T14:20:24;2.17;;;1.08;;
56373;SDS011;58212;47.034;7.376;2023-04-25T14:22:51;1.35;;;0.90;;
56373;SDS011;58212;47.034;7.376;2023-04-25T14:25:19;2.33;;;1.13;;
56373;SDS011;58212;47.034;7.376;2023-04-25T14:27:47;2.08;;;1.05;;
56373;SDS011;58212;47.034;7.376;2023-04-25T14:30:15;3.95;;;1.10;;
56373;SDS011;58212;47.034;7.376;2023-04-25T14:32:44;0.95;;;0.88;;
56373;SDS011;58212;47.034;7.376;2023-04-25T14:35:11;2.08;;;0.88;;
56373;SDS011;58212;47.034;7.376;2023-04-25T14:37:38;1.50;;;0.93;;
56373;SDS011;58212;47.034;7.376;2023-04-25T14:40:06;1.55;;;0.80;;
56373;SDS011;58212;47.034;7.376;2023-04-25T14:42:36;1.15;;;0.90;;
56373;SDS011;58212;47.034;7.376;2023-04-25T14:45:03;2.33;;;0.93;;
56373;SDS011;58212;47.034;7.376;2023-04-25T14:47:32;0.82;;;0.82;;
56373;SDS011;58212;47.034;7.376;2023-04-25T14:50:00;0.80;;;0.80;;
56373;SDS011;58212;47.034;7.376;2023-04-25T14:52:28;1.35;;;1.08;;
56373;SDS011;58212;47.034;7.376;2023-04-25T14:54:55;0.80;;;0.60;;
56373;SDS011;58212;47.034;7.376;2023-04-25T14:57:22;0.93;;;0.57;;
56373;SDS011;58212;47.034;7.376;2023-04-25T14:59:49;2.53;;;1.08;;
56373;SDS011;58212;47.034;7.376;2023-04-25T15:02:16;0.90;;;0.70;;
56373;SDS011;58212;47.034;7.376;2023-04-25T15:04:43;1.20;;;0.60;;
56373;SDS011;58212;47.034;7.376;2023-04-25T15:07:11;2.08;;;0.70;;
56373;SDS011;58212;47.034;7.376;2023-04-25T15:09:38;0.90;;;0.63;;
56373;SDS011;58212;47.034;7.376;2023-04-25T15:12:06;2.95;;;0.80;;
56373;SDS011;58212;47.034;7.376;2023-04-25T15:14:33;0.93;;;0.70;;